Time;durP1;ratioP1;P1;durP2;ratioP2;P2;SDS_P1;SDS_P2;PMS_P1;PMS_P2;Temp;Humidity;BMP_temperature;BMP_pressure;BME280_temperature;BME280_humidity;BME280_pressure;Samples;Min_cycle;Max_cycle;Signal;HPM_P1;HPM_P2
2022/06/07 00:00:06;;;;;;;1.10;0.80;;;;;;;22.12;58.23;99460.97;4478030;32;34587;-88
2022/06/07 00:02:35;;;;;;;1.55;1.00;;;;;;;22.03;58.44;99465.03;4465019;32;33970;-89
2022/06/07 00:05:08;;;;;;;0.88;0.70;;;;;;;22.04;58.40;99463.28;4470667;32;34000;-87
2022/06/07 00:07:37;;;;;;;0.80;0.80;;;;;;;22.00;58.64;99461.75;4472062;32;32726;-88
2022/06/07 00:10:06;;;;;;;1.05;0.80;;;;;;;21.92;58.86;99460.47;4480924;32;33546;-87
2022/06/07 00:12:35;;;;;;;1.48;0.75;;;;;;;21.85;58.93;99460.94;4476897;32;33520;-87
2022/06/07 00:15:06;;;;;;;0.98;0.88;;;;;;;21.89;58.86;99457.16;4477869;32;33569;-87
2022/06/07 00:17:36;;;;;;;1.00;0.90;;;;;;;21.90;58.72;99456.22;4478623;32;34198;-88
2022/06/07 00:20:06;;;;;;;0.60;0.60;;;;;;;21.93;58.46;99456.00;4484278;32;33801;-87
2022/06/07 00:22:35;;;;;;;1.05;0.95;;;;;;;21.97;58.38;99461.97;4476994;32;32598;-87
2022/06/07 00:25:06;;;;;;;0.70;0.70;;;;;;;21.98;58.52;99456.56;4478397;32;34489;-88
2022/06/07 00:27:35;;;;;;;1.10;0.90;;;;;;;21.82;58.75;99454.06;4481048;32;32888;-87
2022/06/07 00:30:07;;;;;;;1.25;0.88;;;;;;;21.85;58.76;99453.03;4478154;32;33887;-87
2022/06/07 00:32:36;;;;;;;1.17;0.90;;;;;;;21.93;58.43;99450.72;4478304;32;34050;-87
2022/06/07 00:35:06;;;;;;;3.05;1.00;;;;;;;21.69;59.11;99453.97;4483883;32;34420;-87
2022/06/07 00:37:35;;;;;;;1.05;0.70;;;;;;;21.87;58.45;99449.34;4469460;32;33535;-87
2022/06/07 00:40:05;;;;;;;0.73;0.70;;;;;;;21.82;58.63;99447.91;4462537;32;34742;-88
2022/06/07 00:42:34;;;;;;;1.80;1.02;;;;;;;21.58;59.31;99447.69;4471205;32;33843;-87
2022/06/07 00:45:03;;;;;;;0.93;0.82;;;;;;;21.72;58.71;99452.94;4479259;32;34429;-87
2022/06/07 00:47:34;;;;;;;0.93;0.80;;;;;;;21.61;58.88;99448.34;4483508;32;33344;-87
2022/06/07 00:50:07;;;;;;;1.30;0.90;;;;;;;21.64;58.65;99447.31;4478085;32;33342;-87
2022/06/07 00:52:36;;;;;;;2.17;1.05;;;;;;;21.59;58.98;99444.94;4477802;32;34008;-87
2022/06/07 00:55:08;;;;;;;1.17;0.95;;;;;;;21.62;58.83;99441.25;4478305;32;33955;-87
2022/06/07 00:57:39;;;;;;;0.90;0.88;;;;;;;21.16;60.33;99442.28;4478088;32;33961;-87
2022/06/07 01:00:12;;;;;;;1.05;0.80;;;;;;;21.20;60.28;99443.81;4479030;32;33858;-88
2022/06/07 01:02:43;;;;;;;1.00;0.90;;;;;;;21.28;59.74;99438.88;4475457;32;34112;-87
2022/06/07 01:05:12;;;;;;;2.05;1.12;;;;;;;21.43;59.21;99442.44;4477751;32;33612;-87
2022/06/07 01:10:44;;;;;;;1.67;0.88;;;;;;;21.34;59.38;99440.31;4477853;32;33429;-88
2022/06/07 01:13:16;;;;;;;2.03;1.52;;;;;;;21.18;59.80;99437.75;4478125;32;34437;-87
2022/06/07 01:15:45;;;;;;;6.32;0.95;;;;;;;21.27;59.50;99431.09;4478155;32;34483;-87
2022/06/07 01:18:16;;;;;;;0.80;0.70;;;;;;;20.97;60.58;99428.50;4483491;32;33000;-87
2022/06/07 01:20:46;;;;;;;1.08;0.90;;;;;;;21.12;60.22;99432.88;4478589;32;34525;-87
2022/06/07 01:23:17;;;;;;;2.00;1.10;;;;;;;21.27;59.82;99431.94;4479893;32;34754;-88
2022/06/07 01:25:49;;;;;;;1.50;0.90;;;;;;;21.18;59.99;99434.28;4480129;32;34477;-87
2022/06/07 01:28:18;;;;;;;1.00;0.95;;;;;;;21.05;60.42;99431.56;4480095;32;33359;-87
2022/06/07 01:30:48;;;;;;;1.30;0.95;;;;;;;21.06;60.36;99422.69;4481646;32;33551;-88
2022/06/07 01:33:17;;;;;;;1.55;1.00;;;;;;;21.03;60.47;99422.88;4485169;32;34820;-87
2022/06/07 01:35:48;;;;;;;1.00;0.93;;;;;;;21.03;60.42;99426.34;4479818;32;33355;-87
2022/06/07 01:38:20;;;;;;;1.75;0.90;;;;;;;21.07;60.39;99424.41;4479965;32;33304;-88
2022/06/07 01:43:38;;;;;;;0.88;0.88;;;;;;;20.98;60.15;99423.16;4480177;32;33519;-87
2022/06/07 01:46:08;;;;;;;1.30;1.20;;;;;;;20.87;60.10;99417.66;4481537;32;33924;-88
2022/06/07 01:48:37;;;;;;;1.55;1.02;;;;;;;20.91;59.84;99413.06;4485521;32;33542;-88
2022/06/07 01:51:08;;;;;;;0.82;0.80;;;;;;;20.72;60.38;99423.88;4479821;32;33785;-88
2022/06/07 01:53:40;;;;;;;0.70;0.70;;;;;;;20.86;59.97;99413.34;4479599;32;33988;-87
2022/06/07 01:56:11;;;;;;;0.60;0.60;;;;;;;20.86;59.83;99413.34;4479686;32;34527;-87
2022/06/07 01:58:43;;;;;;;0.73;0.73;;;;;;;20.73;60.35;99417.66;4479589;32;33118;-87
2022/06/07 02:01:16;;;;;;;1.52;0.90;;;;;;;20.71;60.31;99414.25;4485278;32;34475;-87
2022/06/07 02:03:45;;;;;;;1.90;0.82;;;;;;;20.59;60.53;99410.56;4479191;32;33818;-87
2022/06/07 02:06:15;;;;;;;0.95;0.80;;;;;;;20.57;60.61;99410.66;4478768;32;33646;-87
2022/06/07 02:08:46;;;;;;;0.98;0.90;;;;;;;20.64;60.56;99405.87;4478866;32;33027;-88
2022/06/07 02:11:17;;;;;;;1.25;1.00;;;;;;;20.72;60.36;99406.25;4478855;32;33847;-87
2022/06/07 02:13:46;;;;;;;;;;;;;;;20.65;60.67;99394.38;4478883;32;33661;-88
2022/06/07 02:16:17;;;;;;;0.75;0.70;;;;;;;20.76;60.45;99399.87;4485354;32;34215;-87
2022/06/07 02:18:46;;;;;;;0.70;0.70;;;;;;;20.66;60.85;99393.47;4479528;32;33698;-87
2022/06/07 02:21:16;;;;;;;1.25;0.82;;;;;;;20.70;60.88;99394.13;4479356;32;33880;-87
2022/06/07 02:23:46;;;;;;;1.60;1.00;;;;;;;20.66;60.98;99391.66;4479622;32;33764;-87
2022/06/07 02:26:18;;;;;;;0.85;0.82;;;;;;;20.84;60.48;99387.06;4479617;32;33610;-87
2022/06/07 02:28:50;;;;;;;1.40;0.98;;;;;;;20.73;60.77;99386.88;4484932;32;33309;-88
2022/06/07 02:31:20;;;;;;;3.00;0.82;;;;;;;20.87;60.16;99386.03;4479022;32;33883;-87
2022/06/07 02:33:49;;;;;;;1.20;0.95;;;;;;;20.76;60.56;99388.50;4479334;32;34630;-87
2022/06/07 02:36:18;;;;;;;0.80;0.75;;;;;;;20.77;60.55;99385.75;4475465;32;33904;-87
2022/06/07 02:38:48;;;;;;;1.20;0.95;;;;;;;20.85;60.37;99385.28;4463848;32;33214;-87
2022/06/07 02:41:20;;;;;;;1.12;1.00;;;;;;;20.95;60.01;99382.94;4469763;32;33815;-87
2022/06/07 02:43:49;;;;;;;1.10;1.00;;;;;;;20.93;60.14;99385.69;4469407;32;34672;-87
2022/06/07 02:46:18;;;;;;;0.80;0.80;;;;;;;20.63;61.11;99383.06;4476978;32;33875;-87
2022/06/07 02:48:47;;;;;;;1.05;0.80;;;;;;;20.82;60.42;99390.75;4468822;32;33257;-87
2022/06/07 02:51:17;;;;;;;0.95;0.80;;;;;;;20.83;60.38;99381.91;4463367;32;33649;-88
2022/06/07 02:53:50;;;;;;;0.90;0.80;;;;;;;20.75;60.71;99384.13;4463705;32;34070;-87
2022/06/07 02:56:19;;;;;;;1.92;1.17;;;;;;;20.75;60.79;99387.62;4469451;32;33605;-87
2022/06/07 02:58:48;;;;;;;0.95;0.80;;;;;;;20.76;60.75;99389.34;4463955;32;34048;-87
2022/06/07 03:01:18;;;;;;;1.55;0.95;;;;;;;20.86;60.32;99389.63;4470361;32;33629;-87
2022/06/07 03:03:47;;;;;;;1.10;0.98;;;;;;;20.86;60.46;99389.63;4478822;32;33575;-87
2022/06/07 03:06:16;;;;;;;2.08;1.15;;;;;;;20.77;60.55;99385.75;4477011;32;34607;-87
2022/06/07 03:08:45;;;;;;;1.25;1.10;;;;;;;20.72;61.05;99387.81;4474852;32;34025;-87
2022/06/07 03:11:15;;;;;;;0.70;0.70;;;;;;;20.79;60.77;99383.87;4479020;32;33852;-87
2022/06/07 03:13:46;;;;;;;1.23;0.98;;;;;;;20.81;60.77;99387.25;4479495;32;34084;-88
2022/06/07 03:16:16;;;;;;;;;;;;;;;20.77;61.06;99390.16;4482438;32;33568;-88
2022/06/07 03:18:45;;;;;;;2.22;0.88;;;;;;;20.71;61.54;99385.25;4479017;32;33119;-87
2022/06/07 03:21:15;;;;;;;0.70;0.70;;;;;;;20.65;61.63;99384.69;4479546;32;34452;-88
2022/06/07 03:23:44;;;;;;;1.10;0.80;;;;;;;20.65;61.75;99382.03;4484633;32;34591;-87
2022/06/07 03:26:16;;;;;;;1.12;0.82;;;;;;;20.69;61.79;99387.16;4478878;32;34367;-88
2022/06/07 03:28:45;;;;;;;1.62;1.12;;;;;;;20.85;61.25;99388.78;4479159;32;33270;-88
2022/06/07 03:31:17;;;;;;;1.50;1.08;;;;;;;20.72;61.76;99400.16;4479043;32;34220;-87
2022/06/07 03:33:47;;;;;;;0.90;0.82;;;;;;;20.88;61.21;99390.38;4480535;32;34635;-87
2022/06/07 03:36:20;;;;;;;2.33;1.33;;;;;;;20.72;61.91;99392.25;4483088;32;33816;-87
2022/06/07 03:38:50;;;;;;;1.00;0.80;;;;;;;20.94;61.03;99391.78;4479205;32;33437;-86
2022/06/07 03:41:25;;;;;;;0.98;0.88;;;;;;;20.93;61.10;99388.31;4478986;32;32839;-88
2022/06/07 03:43:55;;;;;;;0.75;0.73;;;;;;;20.89;61.29;99390.28;4478669;32;33608;-88
2022/06/07 03:46:32;;;;;;;1.80;0.93;;;;;;;21.12;60.29;99385.41;4465629;32;33575;-88
2022/06/07 03:49:03;;;;;;;1.05;0.95;;;;;;;21.10;60.45;99392.56;4463478;32;34098;-88
2022/06/07 03:51:33;;;;;;;1.62;1.00;;;;;;;21.20;60.49;99391.03;4468738;32;33780;-88
2022/06/07 03:54:02;;;;;;;0.80;0.80;;;;;;;21.30;60.33;99378.97;4474905;32;33404;-87
2022/06/07 03:56:34;;;;;;;1.10;0.77;;;;;;;21.30;60.48;99386.88;4478949;32;33619;-87
2022/06/07 03:59:03;;;;;;;1.33;0.80;;;;;;;21.40;60.08;99383.69;4478892;32;33123;-87
2022/06/07 04:01:32;;;;;;;1.12;0.80;;;;;;;21.59;59.59;99383.37;4470872;32;33683;-87
2022/06/07 04:04:04;;;;;;;0.98;0.90;;;;;;;21.58;59.81;99382.56;4484265;32;33624;-87
2022/06/07 04:06:38;;;;;;;0.93;0.82;;;;;;;21.56;60.03;99379.16;4483069;32;34432;-87
2022/06/07 04:09:08;;;;;;;0.68;0.68;;;;;;;21.82;59.26;99373.97;4471751;32;33832;-87
2022/06/07 04:11:39;;;;;;;1.02;0.82;;;;;;;21.79;59.71;99376.81;4477357;32;33884;-88
2022/06/07 04:14:08;;;;;;;1.15;1.05;;;;;;;21.74;59.96;99366.56;4478983;32;33044;-88
2022/06/07 04:16:37;;;;;;;0.90;0.90;;;;;;;21.96;59.49;99366.00;4478472;32;34283;-88
2022/06/07 04:19:07;;;;;;;1.08;0.85;;;;;;;22.01;59.41;99363.06;4484425;32;33165;-87
2022/06/07 04:21:36;;;;;;;1.33;0.90;;;;;;;22.16;59.22;99359.44;4478831;32;33558;-87
2022/06/07 04:24:07;;;;;;;1.08;0.82;;;;;;;22.34;58.65;99360.87;4478461;32;33469;-87
2022/06/07 04:26:36;;;;;;;0.98;0.85;;;;;;;22.35;58.42;99359.09;4478559;32;33443;-87
2022/06/07 04:29:06;;;;;;;1.35;0.90;;;;;;;22.42;58.17;99354.22;4478620;32;33180;-88
2022/06/07 04:31:35;;;;;;;0.75;0.75;;;;;;;22.48;57.86;99359.09;4484257;32;34206;-88
2022/06/07 04:34:05;;;;;;;1.15;0.90;;;;;;;22.68;57.68;99358.56;4478734;32;33635;-87
2022/06/07 04:36:35;;;;;;;1.90;0.90;;;;;;;22.96;57.52;99346.94;4474942;32;33765;-87
2022/06/07 04:39:07;;;;;;;4.10;1.15;;;;;;;23.97;53.80;99351.25;4462873;32;35627;-88
2022/06/07 04:41:36;;;;;;;1.67;0.80;;;;;;;24.64;51.59;99356.78;4462840;32;33852;-87
2022/06/07 04:44:07;;;;;;;1.80;0.95;;;;;;;25.73;49.00;99350.00;4467463;32;33972;-88
2022/06/07 04:46:37;;;;;;;0.70;0.70;;;;;;;26.51;47.35;99351.53;4483829;32;34321;-88
2022/06/07 04:49:06;;;;;;;1.70;0.70;;;;;;;27.37;45.00;99356.59;4478142;32;33111;-88
2022/06/07 04:51:38;;;;;;;0.55;0.50;;;;;;;28.03;43.50;99354.22;4466875;32;33621;-87
2022/06/07 04:54:07;;;;;;;1.98;0.65;;;;;;;28.76;41.64;99353.72;4463814;32;33579;-87
2022/06/07 04:56:37;;;;;;;0.85;0.60;;;;;;;29.14;40.91;99354.59;4476361;32;33833;-87
2022/06/07 04:59:08;;;;;;;0.47;0.40;;;;;;;29.20;40.17;99359.34;4483386;32;33040;-87
2022/06/07 05:01:38;;;;;;;;;;;;;;;29.69;39.26;99359.09;4474765;32;33576;-87
2022/06/07 05:04:08;;;;;;;1.50;0.68;;;;;;;29.90;38.86;99361.50;4472579;32;34760;-87
2022/06/07 05:06:40;;;;;;;1.23;1.02;;;;;;;29.56;38.74;99354.94;4476599;32;35260;-87
2022/06/07 05:09:17;;;;;;;0.45;0.45;;;;;;;29.65;39.27;99352.34;4475753;32;33662;-88
2022/06/07 05:11:48;;;;;;;0.82;0.60;;;;;;;29.68;39.34;99355.59;4471005;32;33943;-87
2022/06/07 05:14:21;;;;;;;0.65;0.40;;;;;;;29.71;38.92;99362.47;4477750;32;34637;-87
2022/06/07 05:16:50;;;;;;;;;;;;;;;29.45;39.20;99360.47;4465857;32;34128;-86
2022/06/07 05:19:20;;;;;;;0.65;0.40;;;;;;;29.23;39.56;99359.03;4474398;32;34293;-88
2022/06/07 05:21:50;;;;;;;0.60;0.53;;;;;;;29.14;40.47;99365.28;4478464;32;33462;-87
2022/06/07 05:24:20;;;;;;;0.73;0.50;;;;;;;29.16;39.80;99368.63;4475080;32;33165;-87
2022/06/07 05:26:51;;;;;;;0.50;0.45;;;;;;;28.99;40.30;99359.53;4477084;32;33785;-87
2022/06/07 05:29:29;;;;;;;0.57;0.52;;;;;;;28.84;40.67;99366.34;4477477;32;33382;-87
2022/06/07 05:31:58;;;;;;;0.98;0.57;;;;;;;28.64;41.13;99362.88;4465665;32;33214;-88
2022/06/07 05:34:32;;;;;;;1.05;0.60;;;;;;;28.39;41.22;99369.63;4473883;32;34840;-87
2022/06/07 05:37:00;;;;;;;0.40;0.40;;;;;;;28.08;41.48;99367.97;4476234;32;33557;-87
2022/06/07 05:39:31;;;;;;;0.93;0.55;;;;;;;28.10;41.06;99375.81;4478407;32;33497;-87
2022/06/07 05:42:01;;;;;;;;;;;;;;;27.77;42.28;99369.88;4479140;32;34512;-87
2022/06/07 05:44:31;;;;;;;0.90;0.60;;;;;;;27.89;41.84;99367.97;4474516;32;34712;-87
2022/06/07 05:47:02;;;;;;;0.73;0.40;;;;;;;27.89;42.64;99359.97;4478754;32;33855;-87
2022/06/07 05:49:33;;;;;;;0.50;0.50;;;;;;;27.98;42.31;99364.47;4476819;31;35289;-88
2022/06/07 05:52:03;;;;;;;0.30;0.30;;;;;;;28.27;42.30;99372.47;4473476;32;33511;-88
2022/06/07 05:54:34;;;;;;;1.55;0.62;;;;;;;28.33;41.52;99368.37;4480613;32;33402;-87
2022/06/07 05:57:05;;;;;;;0.85;0.65;;;;;;;28.15;42.26;99372.72;4475322;32;33645;-87
2022/06/07 05:59:36;;;;;;;;;;;;;;;28.02;42.03;99367.69;4464754;32;34361;-87
2022/06/07 06:02:05;;;;;;;0.55;0.55;;;;;;;27.77;42.10;99366.38;4468123;32;34043;-88
2022/06/07 06:04:34;;;;;;;1.37;0.55;;;;;;;27.32;44.00;99366.81;4474839;32;33647;-87
2022/06/07 06:07:04;;;;;;;1.37;0.68;;;;;;;26.93;45.23;99363.97;4478146;32;33847;-88
2022/06/07 06:12:24;;;;;;;0.70;0.50;;;;;;;27.26;45.16;99362.03;4483250;32;33464;-86
2022/06/07 06:14:55;;;;;;;0.95;0.70;;;;;;;26.94;45.28;99361.19;4477531;32;34445;-87
2022/06/07 06:17:24;;;;;;;0.50;0.50;;;;;;;26.67;44.70;99363.53;4477553;32;34050;-87
2022/06/07 06:19:55;;;;;;;;;;;;;;;26.52;45.70;99366.50;4476987;32;33085;-87
2022/06/07 06:22:24;;;;;;;1.37;1.00;;;;;;;26.77;45.76;99365.28;4477781;32;34200;-88
2022/06/07 06:24:53;;;;;;;1.00;0.60;;;;;;;26.83;44.92;99366.56;4485259;32;33921;-87
2022/06/07 06:27:22;;;;;;;0.77;0.70;;;;;;;26.50;45.19;99363.13;4479800;32;34120;-87
2022/06/07 06:29:52;;;;;;;0.70;0.60;;;;;;;26.30;45.46;99364.81;4479556;32;34080;-88
2022/06/07 06:32:23;;;;;;;0.93;0.73;;;;;;;26.31;45.56;99360.31;4475791;32;33527;-88
2022/06/07 06:34:52;;;;;;;0.60;0.60;;;;;;;26.56;44.41;99354.66;4464000;32;34285;-87
2022/06/07 06:37:22;;;;;;;0.67;0.67;;;;;;;26.33;45.39;99353.91;4469176;32;35490;-88
2022/06/07 06:39:51;;;;;;;0.82;0.80;;;;;;;26.21;45.61;99346.94;4464005;32;32855;-87
2022/06/07 06:42:20;;;;;;;1.37;0.70;;;;;;;26.18;47.02;99353.37;4466613;32;34608;-88
2022/06/07 06:44:54;;;;;;;2.12;0.90;;;;;;;26.09;46.26;99345.31;4463921;32;33826;-88
2022/06/07 06:47:24;;;;;;;0.80;0.70;;;;;;;26.28;46.29;99355.28;4463615;32;33899;-88
2022/06/07 06:49:54;;;;;;;0.95;0.88;;;;;;;26.48;44.75;99349.12;4464087;32;33070;-88
2022/06/07 06:52:24;;;;;;;0.65;0.65;;;;;;;26.75;43.73;99343.28;4469179;32;33584;-88
2022/06/07 06:54:53;;;;;;;1.17;0.88;;;;;;;26.51;44.76;99346.19;4463742;32;33756;-88
2022/06/07 06:57:22;;;;;;;1.10;0.70;;;;;;;26.55;44.63;99342.31;4463525;32;34684;-88
2022/06/07 06:59:53;;;;;;;1.33;0.73;;;;;;;26.62;43.78;99342.62;4464343;32;33349;-87
2022/06/07 07:02:22;;;;;;;0.60;0.60;;;;;;;27.02;42.79;99337.37;4469457;32;32986;-87
2022/06/07 07:04:53;;;;;;;2.55;1.27;;;;;;;26.86;43.22;99341.50;4478601;32;33998;-88
2022/06/07 07:07:22;;;;;;;1.45;0.82;;;;;;;27.19;42.59;99340.44;4463520;32;33081;-87
2022/06/07 07:09:51;;;;;;;0.90;0.80;;;;;;;26.97;44.64;99347.59;4463637;32;33066;-88
2022/06/07 07:12:20;;;;;;;1.73;0.43;;;;;;;27.30;43.02;99339.47;4463601;32;33764;-88
2022/06/07 07:14:51;;;;;;;1.20;0.60;;;;;;;27.35;42.86;99346.09;4463520;32;33957;-87
2022/06/07 07:17:31;;;;;;;1.85;0.60;;;;;;;27.35;41.69;99337.22;4462907;32;34130;-88
2022/06/07 07:20:01;;;;;;;0.35;0.35;;;;;;;27.50;41.86;99337.69;4470299;32;33123;-88
2022/06/07 07:22:35;;;;;;;0.75;0.40;;;;;;;27.66;42.35;99338.84;4466137;32;33306;-88
2022/06/07 07:25:06;;;;;;;1.33;0.62;;;;;;;28.12;40.40;99335.69;4463695;32;33725;-88
2022/06/07 07:27:35;;;;;;;2.53;0.70;;;;;;;27.87;40.96;99333.44;4463587;32;33524;-88
2022/06/07 07:30:05;;;;;;;1.27;0.80;;;;;;;28.02;41.76;99336.50;4463895;32;33321;-88
2022/06/07 07:32:35;;;;;;;1.05;0.52;;;;;;;27.86;40.18;99330.91;4469289;32;33593;-88
2022/06/07 07:35:07;;;;;;;1.05;0.73;;;;;;;28.02;40.09;99328.50;4464958;32;34828;-88
2022/06/07 07:37:37;;;;;;;0.62;0.55;;;;;;;28.33;39.53;99325.69;4463034;32;34453;-88
2022/06/07 07:40:08;;;;;;;1.02;0.50;;;;;;;28.32;39.86;99332.03;4463556;32;34208;-88
2022/06/07 07:42:37;;;;;;;;;;;;;;;28.30;38.65;99329.47;4463543;32;33856;-87
2022/06/07 07:45:08;;;;;;;2.37;1.87;;;;;;;28.29;38.95;99326.94;4466130;32;34184;-88
2022/06/07 07:47:37;;;;;;;0.40;0.40;;;;;;;27.87;39.02;99321.94;4470734;32;33041;-88
2022/06/07 07:50:08;;;;;;;0.60;0.50;;;;;;;28.17;38.77;99326.25;4470691;32;34018;-88
2022/06/07 07:52:38;;;;;;;1.20;0.70;;;;;;;28.38;39.52;99325.25;4474760;32;33526;-88
2022/06/07 07:55:08;;;;;;;1.58;0.68;;;;;;;28.69;38.33;99324.09;4472951;32;34586;-87
2022/06/07 07:57:38;;;;;;;0.50;0.50;;;;;;;28.76;38.20;99324.34;4463274;32;33434;-88
2022/06/07 08:00:10;;;;;;;1.00;0.77;;;;;;;28.35;37.79;99320.22;4469146;32;33485;-88
2022/06/07 08:02:41;;;;;;;1.30;0.62;;;;;;;28.66;38.31;99320.88;4465241;32;212796;-88
2022/06/07 08:05:13;;;;;;;1.27;0.65;;;;;;;28.58;38.81;99320.75;4478614;32;33107;-88
2022/06/07 08:07:42;;;;;;;1.30;0.93;;;;;;;28.71;38.68;99324.78;4478875;32;33550;-87
2022/06/07 08:10:26;;;;;;;3.62;1.17;;;;;;;28.77;37.81;99318.03;4479344;32;34162;-88
2022/06/07 08:12:57;;;;;;;6.43;2.20;;;;;;;28.96;38.85;99310.94;4478735;32;33765;-88
2022/06/07 08:15:29;;;;;;;1.02;0.80;;;;;;;29.02;38.61;99308.53;4483904;32;34278;-88
2022/06/07 08:18:01;;;;;;;1.80;0.85;;;;;;;28.86;37.76;99316.31;4477162;32;33757;-89
2022/06/07 08:20:36;;;;;;;3.28;0.90;;;;;;;28.83;38.19;99312.09;4478793;32;34012;-88
2022/06/07 08:23:06;;;;;;;1.05;0.52;;;;;;;28.64;37.88;99313.00;4478463;32;35214;-88
2022/06/07 08:25:35;;;;;;;2.55;1.12;;;;;;;29.08;37.39;99307.09;4478617;32;33246;-88
2022/06/07 08:28:05;;;;;;;2.47;1.15;;;;;;;29.06;37.20;99304.56;4476900;31;33721;-88
2022/06/07 08:30:36;;;;;;;0.93;0.68;;;;;;;29.10;36.42;99299.78;4482958;32;32684;-88
2022/06/07 08:37:32;;;;;;;;;;;;;;;28.64;36.75;99310.34;4479170;32;33478;-87
2022/06/07 08:38:44;;;;;;;1.35;0.70;;;;;;;28.83;37.18;99301.44;4478461;32;34497;-88
2022/06/07 08:41:22;;;;;;;0.85;0.68;;;;;;;29.30;37.10;99304.03;4478371;32;32687;-88
2022/06/07 08:43:53;;;;;;;0.95;0.60;;;;;;;29.42;36.79;99303.81;4478269;32;34502;-88
2022/06/07 08:46:27;;;;;;;1.62;0.60;;;;;;;29.26;35.22;99296.47;4478407;32;34019;-88
2022/06/07 08:48:56;;;;;;;4.60;0.98;;;;;;;29.46;35.93;99300.69;4482562;32;33656;-88
2022/06/07 08:51:29;;;;;;;4.18;1.35;;;;;;;29.49;35.86;99299.56;4475487;32;32559;-88
2022/06/07 08:53:59;;;;;;;4.93;1.55;;;;;;;29.71;36.38;99300.97;4473573;32;33870;-88
2022/06/07 08:56:31;;;;;;;0.62;0.50;;;;;;;29.73;35.36;99302.50;4474090;32;33656;-88
2022/06/07 08:59:02;;;;;;;0.95;0.60;;;;;;;29.97;33.86;99293.03;4477583;32;33846;-88
2022/06/07 09:01:31;;;;;;;;;;;;;;;30.30;34.07;99296.84;4480491;32;34126;-88
2022/06/07 09:04:07;;;;;;;1.02;0.75;;;;;;;30.14;32.74;99297.50;4477872;32;34242;-88
2022/06/07 09:06:41;;;;;;;1.62;0.70;;;;;;;30.16;33.34;99292.84;4478150;32;33662;-88
2022/06/07 09:09:11;;;;;;;0.60;0.52;;;;;;;30.14;33.80;99292.16;4477117;32;33659;-88
2022/06/07 09:14:34;;;;;;;1.65;0.75;;;;;;;30.33;34.48;99287.66;4475602;32;33761;-88
2022/06/07 09:17:06;;;;;;;1.15;0.52;;;;;;;30.41;33.14;99290.38;4474820;32;34282;-88
2022/06/07 09:19:36;;;;;;;4.05;1.02;;;;;;;30.65;33.39;99289.69;4479259;32;33554;-88
2022/06/07 09:22:16;;;;;;;6.32;0.77;;;;;;;30.44;32.98;99287.38;4476080;32;32981;-87
2022/06/07 09:24:53;;;;;;;1.05;0.73;;;;;;;30.64;31.98;99279.97;4477568;32;34459;-88
2022/06/07 09:27:25;;;;;;;0.57;0.55;;;;;;;30.70;31.85;99286.53;4473730;32;34715;-88
2022/06/07 09:29:56;;;;;;;1.30;0.50;;;;;;;30.91;33.06;99278.97;4474585;32;33942;-88
2022/06/07 09:32:34;;;;;;;1.52;0.57;;;;;;;31.12;32.34;99269.66;4474621;32;33179;-87
2022/06/07 09:35:08;;;;;;;1.40;0.80;;;;;;;31.18;31.98;99275.19;4483130;32;33791;-87
2022/06/07 09:37:42;;;;;;;1.00;0.52;;;;;;;30.99;32.75;99267.44;4476677;32;35750;-88
2022/06/07 09:40:22;;;;;;;1.87;1.25;;;;;;;30.94;32.72;99267.09;4476390;32;34506;-87
2022/06/07 09:42:59;;;;;;;0.98;0.55;;;;;;;30.82;31.87;99259.28;4476506;32;33670;-88
2022/06/07 09:45:31;;;;;;;0.40;0.40;;;;;;;30.68;32.44;99269.78;4477290;32;33474;-88
2022/06/07 09:48:19;;;;;;;0.55;0.40;;;;;;;30.80;33.71;99263.13;4481524;32;34672;-88
2022/06/07 09:50:56;;;;;;;0.73;0.50;;;;;;;30.84;32.19;99259.19;4479831;32;33529;-88
2022/06/07 09:53:34;;;;;;;0.90;0.50;;;;;;;31.10;31.58;99261.78;4484541;31;34020;-87
2022/06/07 09:56:21;;;;;;;2.92;0.65;;;;;;;31.25;31.19;99252.09;4478021;32;33286;-88
2022/06/07 09:59:03;;;;;;;0.60;0.50;;;;;;;31.29;31.20;99255.31;4475924;32;33995;-88
2022/06/07 10:01:36;;;;;;;0.98;0.52;;;;;;;31.40;29.89;99251.50;4477895;32;34307;-88
2022/06/07 10:04:12;;;;;;;0.93;0.40;;;;;;;31.50;30.70;99249.50;4475246;32;33320;-88
2022/06/07 10:06:44;;;;;;;1.62;0.73;;;;;;;31.88;30.40;99247.19;4479697;32;34007;-88
2022/06/07 10:09:25;;;;;;;0.62;0.40;;;;;;;32.14;29.82;99243.47;4478876;32;34653;-88
2022/06/07 10:12:03;;;;;;;0.65;0.50;;;;;;;32.09;30.53;99239.50;4485172;32;34539;-88
2022/06/07 10:14:40;;;;;;;1.37;0.50;;;;;;;32.31;30.77;99248.66;4478925;32;34326;-88
2022/06/07 10:17:38;;;;;;;0.30;0.30;;;;;;;32.56;28.78;99245.13;4476341;32;34387;-88
2022/06/07 10:20:13;;;;;;;1.15;0.70;;;;;;;32.67;27.51;99231.31;4472771;32;34094;-88
2022/06/07 10:23:06;;;;;;;0.73;0.50;;;;;;;32.69;26.85;99240.03;4477870;32;34300;-88
2022/06/07 10:25:45;;;;;;;0.43;0.40;;;;;;;32.70;28.81;99236.34;4476644;32;33094;-88
2022/06/07 10:28:20;;;;;;;3.85;0.60;;;;;;;32.86;27.60;99230.91;4475219;32;34019;-89
2022/06/07 10:30:55;;;;;;;0.40;0.30;;;;;;;32.91;28.13;99224.97;4474404;32;33665;-88
2022/06/07 10:33:34;;;;;;;0.65;0.45;;;;;;;32.35;27.66;99225.00;4484127;32;34495;-88
2022/06/07 10:36:14;;;;;;;1.08;0.40;;;;;;;32.79;28.20;99221.00;4480193;32;32315;-88
2022/06/07 10:38:52;;;;;;;0.40;0.40;;;;;;;32.73;29.17;99220.69;4477566;32;33827;-87
2022/06/07 10:41:29;;;;;;;0.52;0.30;;;;;;;33.10;28.88;99211.16;4477773;32;34012;-88
2022/06/07 10:44:03;;;;;;;3.80;0.80;;;;;;;33.24;28.78;99214.09;4478187;32;33173;-88
2022/06/07 10:46:35;;;;;;;1.00;0.50;;;;;;;32.94;29.42;99214.72;4479431;32;33305;-89
2022/06/07 10:49:13;;;;;;;0.68;0.40;;;;;;;33.47;28.88;99214.94;4475326;32;33400;-89
2022/06/07 10:54:42;;;;;;;0.70;0.50;;;;;;;33.71;28.61;99208.56;4483648;32;33851;-88
2022/06/07 10:57:17;;;;;;;0.40;0.40;;;;;;;33.84;26.15;99207.09;4477672;32;34262;-88
2022/06/07 10:59:46;;;;;;;1.95;0.50;;;;;;;33.69;26.56;99199.00;4479242;32;33478;-88
2022/06/07 11:02:21;;;;;;;1.62;0.43;;;;;;;33.94;27.41;99191.53;4478547;32;34747;-88
2022/06/07 11:10:35;;;;;;;0.30;0.30;;;;;;;34.33;26.36;99185.91;4479563;32;33803;-89
2022/06/07 11:13:17;;;;;;;0.50;0.35;;;;;;;34.15;26.10;99177.41;4482840;32;34539;-88
2022/06/07 11:15:52;;;;;;;0.82;0.35;;;;;;;33.82;26.74;99172.28;4478213;32;34508;-88
2022/06/07 11:18:23;;;;;;;0.55;0.40;;;;;;;33.79;26.54;99173.50;4472749;32;33391;-89
2022/06/07 11:21:26;;;;;;;0.20;0.20;;;;;;;33.45;27.26;99176.63;4476871;32;33749;-89
2022/06/07 11:24:05;;;;;;;0.40;0.40;;;;;;;33.38;27.91;99164.94;4474369;32;33420;-89
2022/06/07 11:27:00;;;;;;;0.50;0.43;;;;;;;33.73;27.69;99163.50;4476441;32;34584;-88
2022/06/07 11:29:32;;;;;;;1.15;0.50;;;;;;;33.83;26.70;99159.69;4478208;32;32811;-88
2022/06/07 11:32:02;;;;;;;0.30;0.30;;;;;;;34.20;27.17;99156.13;4478539;32;33511;-88
2022/06/07 11:34:33;;;;;;;;;;;;;;;34.40;26.30;99156.41;4481281;32;32622;-88
2022/06/07 11:37:26;;;;;;;2.50;0.40;;;;;;;34.57;26.67;99151.62;4477157;32;34610;-88
2022/06/07 11:39:56;;;;;;;1.00;0.47;;;;;;;34.81;25.69;99153.19;4477369;32;33364;-89
2022/06/07 11:42:31;;;;;;;0.65;0.30;;;;;;;34.80;25.34;99152.38;4475828;32;34388;-88
2022/06/07 11:45:23;;;;;;;0.77;0.32;;;;;;;35.04;25.13;99148.47;4476686;32;34711;-88
2022/06/07 11:48:23;;;;;;;0.35;0.35;;;;;;;35.09;24.65;99147.09;4475921;32;33760;-88
2022/06/07 11:50:59;;;;;;;0.77;0.50;;;;;;;35.00;24.23;99136.41;4478120;32;33140;-88
2022/06/07 11:53:31;;;;;;;0.30;0.20;;;;;;;35.05;24.01;99127.75;4477683;32;34580;-88
2022/06/07 11:56:20;;;;;;;0.65;0.50;;;;;;;35.48;23.75;99135.84;4483926;32;34112;-88
2022/06/07 11:58:59;;;;;;;0.28;0.28;;;;;;;35.65;22.64;99131.03;4477783;32;33946;-88
2022/06/07 12:01:42;;;;;;;0.98;0.65;;;;;;;35.73;23.87;99128.16;4474227;32;33487;-87
2022/06/07 12:04:32;;;;;;;1.12;0.40;;;;;;;35.78;23.34;99119.50;4475829;32;34477;-88
2022/06/07 12:07:20;;;;;;;0.30;0.30;;;;;;;35.90;23.14;99123.31;4476098;32;33776;-88
2022/06/07 12:09:53;;;;;;;0.60;0.30;;;;;;;36.02;22.50;99119.00;4472587;32;34527;-88
2022/06/07 12:12:28;;;;;;;0.47;0.40;;;;;;;36.16;21.67;99119.13;4474548;32;33594;-88
2022/06/07 12:15:04;;;;;;;0.75;0.47;;;;;;;35.95;22.34;99109.22;4476631;32;34699;-88
2022/06/07 12:17:34;;;;;;;1.30;0.62;;;;;;;36.17;21.91;99110.81;4482758;32;33993;-88
2022/06/07 12:20:04;;;;;;;0.75;0.35;;;;;;;36.38;22.85;99109.06;4476307;32;33041;-88
2022/06/07 12:22:42;;;;;;;0.40;0.30;;;;;;;36.30;22.85;99110.06;4475717;32;34258;-88